Time;durP1;ratioP1;P1;durP2;ratioP2;P2;SDS_P1;SDS_P2;PMS_P1;PMS_P2;Temp;Humidity;BMP_temperature;BMP_pressure;BME280_temperature;BME280_humidity;BME280_pressure;Samples;Min_cycle;Max_cycle;Signal;HPM_P1;HPM_P2
2023/12/06 00:00:03;;;;;;;45.27;29.67;;;;;;;;;;5073326;28;20161;-57
2023/12/06 00:02:29;;;;;;;50.37;31.87;;;;;;;;;;5073219;28;20033;-57
2023/12/06 00:04:55;;;;;;;47.30;31.23;;;;;;;;;;5073236;28;20104;-57
2023/12/06 00:07:21;;;;;;;50.07;32.10;;;;;;;;;;5073088;28;20584;-57
2023/12/06 00:09:47;;;;;;;46.83;30.13;;;;;;;;;;5068252;28;20025;-55
2023/12/06 00:12:13;;;;;;;52.70;30.90;;;;;;;;;;5064649;28;20056;-57
2023/12/06 00:14:39;;;;;;;48.57;31.27;;;;;;;;;;5072926;28;20378;-57
2023/12/06 00:17:05;;;;;;;46.37;30.63;;;;;;;;;;5073285;28;20028;-58
2023/12/06 00:19:31;;;;;;;46.93;30.97;;;;;;;;;;5058836;28;20524;-58
2023/12/06 00:21:57;;;;;;;45.23;30.90;;;;;;;;;;5073109;28;20024;-58
2023/12/06 00:24:23;;;;;;;49.83;31.00;;;;;;;;;;5072779;28;20031;-57
2023/12/06 00:26:49;;;;;;;44.47;28.90;;;;;;;;;;5072549;28;20020;-57
2023/12/06 00:29:16;;;;;;;44.40;30.53;;;;;;;;;;5060075;28;20453;-56
2023/12/06 00:31:42;;;;;;;48.57;31.80;;;;;;;;;;5068379;28;20495;-57
2023/12/06 00:34:08;;;;;;;46.63;29.23;;;;;;;;;;5067452;28;20481;-58
2023/12/06 00:36:34;;;;;;;44.27;28.73;;;;;;;;;;5068507;28;20025;-57
2023/12/06 00:39:00;;;;;;;47.77;30.67;;;;;;;;;;5065982;28;20055;-58
2023/12/06 00:41:26;;;;;;;50.57;31.03;;;;;;;;;;5070725;28;20082;-59
2023/12/06 00:43:53;;;;;;;48.77;31.00;;;;;;;;;;5072152;28;20047;-57
2023/12/06 00:46:19;;;;;;;44.17;29.53;;;;;;;;;;5072379;28;20020;-57
2023/12/06 00:48:45;;;;;;;46.07;28.90;;;;;;;;;;5072266;28;20032;-58
2023/12/06 00:51:11;;;;;;;45.60;30.27;;;;;;;;;;5072353;28;20497;-57
2023/12/06 00:53:37;;;;;;;44.80;29.43;;;;;;;;;;5071480;28;20029;-57
2023/12/06 00:56:03;;;;;;;43.77;31.07;;;;;;;;;;5072097;28;20029;-59
2023/12/06 00:58:29;;;;;;;47.27;30.03;;;;;;;;;;5072183;28;20028;-58
2023/12/06 01:00:56;;;;;;;44.43;30.23;;;;;;;;;;5072277;28;20021;-57
2023/12/06 01:03:21;;;;;;;42.93;28.77;;;;;;;;;;5071103;28;20077;-57
2023/12/06 01:05:47;;;;;;;47.50;30.73;;;;;;;;;;5072437;28;20392;-58
2023/12/06 01:08:13;;;;;;;48.80;30.07;;;;;;;;;;5071198;28;20064;-57
2023/12/06 01:10:43;;;;;;;41.67;27.60;;;;;;;;;;5072505;28;20016;-56
2023/12/06 01:13:08;;;;;;;45.63;28.77;;;;;;;;;;5070857;28;20082;-57
2023/12/06 01:15:34;;;;;;;40.47;27.87;;;;;;;;;;5071825;28;20071;-57
2023/12/06 01:18:00;;;;;;;41.90;27.57;;;;;;;;;;5072031;28;20031;-57
2023/12/06 01:20:26;;;;;;;39.40;26.87;;;;;;;;;;5071965;28;20104;-56
2023/12/06 01:22:52;;;;;;;37.23;25.40;;;;;;;;;;5072127;28;20091;-57
2023/12/06 01:25:18;;;;;;;36.57;25.87;;;;;;;;;;5071841;28;20083;-58
2023/12/06 01:27:44;;;;;;;41.03;27.00;;;;;;;;;;5072189;28;20032;-56
2023/12/06 01:30:11;;;;;;;36.83;24.97;;;;;;;;;;5072068;28;20028;-57
2023/12/06 01:32:37;;;;;;;35.60;25.80;;;;;;;;;;5068177;28;20100;-56
2023/12/06 01:35:03;;;;;;;39.70;24.90;;;;;;;;;;5065550;28;20056;-54
2023/12/06 01:37:29;;;;;;;36.13;24.93;;;;;;;;;;5072120;28;20507;-56
2023/12/06 01:39:55;;;;;;;34.67;24.13;;;;;;;;;;5071882;28;20017;-56
2023/12/06 01:42:20;;;;;;;34.27;24.70;;;;;;;;;;5071955;28;20095;-56
2023/12/06 01:44:46;;;;;;;36.33;25.90;;;;;;;;;;5066795;28;20040;-55
2023/12/06 01:47:13;;;;;;;36.97;25.90;;;;;;;;;;5064827;28;20494;-55
2023/12/06 01:49:39;;;;;;;36.80;25.20;;;;;;;;;;5071619;28;20032;-57
2023/12/06 01:52:06;;;;;;;36.53;27.10;;;;;;;;;;5071597;28;20020;-56
2023/12/06 01:54:32;;;;;;;36.27;24.60;;;;;;;;;;5071589;28;20017;-57
2023/12/06 01:56:58;;;;;;;33.37;24.53;;;;;;;;;;5071643;28;20017;-56
2023/12/06 01:59:25;;;;;;;37.37;26.43;;;;;;;;;;5071527;28;20025;-57
2023/12/06 02:01:51;;;;;;;32.03;23.70;;;;;;;;;;5071642;28;20103;-56
2023/12/06 02:04:17;;;;;;;35.73;25.13;;;;;;;;;;5071514;28;20036;-56
2023/12/06 02:06:43;;;;;;;33.50;24.37;;;;;;;;;;5071506;28;20097;-56
2023/12/06 02:09:12;;;;;;;35.37;26.20;;;;;;;;;;5073976;28;20336;-57
2023/12/06 02:11:38;;;;;;;36.07;25.27;;;;;;;;;;5074387;28;20021;-57
2023/12/06 02:14:04;;;;;;;36.60;25.10;;;;;;;;;;5074384;28;20082;-55
2023/12/06 02:16:31;;;;;;;34.73;25.33;;;;;;;;;;5074459;28;20402;-56
2023/12/06 02:18:57;;;;;;;33.83;24.47;;;;;;;;;;5074118;28;20036;-55
2023/12/06 02:21:23;;;;;;;33.63;24.97;;;;;;;;;;5071813;28;20066;-56
2023/12/06 02:23:49;;;;;;;34.80;24.67;;;;;;;;;;5060542;28;20024;-56
2023/12/06 02:26:15;;;;;;;32.87;23.93;;;;;;;;;;5075119;28;20020;-56
2023/12/06 02:28:41;;;;;;;33.73;25.13;;;;;;;;;;5072870;28;20051;-55
2023/12/06 02:31:07;;;;;;;35.53;24.63;;;;;;;;;;5061506;28;20024;-56
2023/12/06 02:33:33;;;;;;;34.27;24.47;;;;;;;;;;5075300;28;20020;-58
2023/12/06 02:36:01;;;;;;;32.90;24.03;;;;;;;;;;5075103;28;20028;-56
2023/12/06 02:38:28;;;;;;;34.93;25.70;;;;;;;;;;5075117;28;20028;-56
2023/12/06 02:40:55;;;;;;;35.57;25.47;;;;;;;;;;5060746;28;20020;-58
2023/12/06 02:43:21;;;;;;;34.60;24.10;;;;;;;;;;5069771;28;20044;-58
2023/12/06 02:45:47;;;;;;;33.37;24.13;;;;;;;;;;5074745;28;20032;-58
2023/12/06 02:48:13;;;;;;;32.63;24.93;;;;;;;;;;5073441;28;20033;-58
2023/12/06 02:50:39;;;;;;;34.43;24.93;;;;;;;;;;5074952;28;20024;-57
2023/12/06 02:53:05;;;;;;;34.83;25.17;;;;;;;;;;5074658;28;20525;-57
2023/12/06 02:55:31;;;;;;;35.13;24.37;;;;;;;;;;5074357;28;20021;-58
2023/12/06 02:57:57;;;;;;;33.73;24.57;;;;;;;;;;5073667;28;20085;-58
2023/12/06 03:00:23;;;;;;;36.70;23.57;;;;;;;;;;5074890;28;20070;-56
2023/12/06 03:02:49;;;;;;;35.67;24.90;;;;;;;;;;5074418;28;20063;-58
2023/12/06 03:05:15;;;;;;;30.77;24.33;;;;;;;;;;5073137;28;20037;-58
2023/12/06 03:07:41;;;;;;;33.50;23.77;;;;;;;;;;5060219;28;20047;-57
2023/12/06 03:10:07;;;;;;;42.20;25.53;;;;;;;;;;5074808;28;20436;-58
2023/12/06 03:12:33;;;;;;;33.93;24.23;;;;;;;;;;5072406;28;20082;-57
2023/12/06 03:14:59;;;;;;;32.07;23.67;;;;;;;;;;5071442;28;20025;-58
2023/12/06 03:17:25;;;;;;;33.93;24.73;;;;;;;;;;5067673;28;20105;-57
2023/12/06 03:19:51;;;;;;;32.33;22.70;;;;;;;;;;5071716;28;20020;-58
2023/12/06 03:22:17;;;;;;;33.67;24.17;;;;;;;;;;5074464;28;20055;-57
2023/12/06 03:24:43;;;;;;;31.47;22.37;;;;;;;;;;5074137;28;20107;-58
2023/12/06 03:27:09;;;;;;;31.10;23.13;;;;;;;;;;5073949;28;20033;-58
2023/12/06 03:29:35;;;;;;;28.20;22.37;;;;;;;;;;5072614;28;20457;-58
2023/12/06 03:32:01;;;;;;;32.03;23.50;;;;;;;;;;5074323;28;20021;-57
2023/12/06 03:34:27;;;;;;;34.07;23.63;;;;;;;;;;5073957;28;20451;-57
2023/12/06 03:36:53;;;;;;;30.90;22.50;;;;;;;;;;5074107;28;20034;-55
2023/12/06 03:39:19;;;;;;;31.07;22.80;;;;;;;;;;5072575;28;20032;-58
2023/12/06 03:41:45;;;;;;;31.27;22.13;;;;;;;;;;5073928;28;20025;-57
2023/12/06 03:44:11;;;;;;;33.37;23.83;;;;;;;;;;5072154;28;20051;-56
2023/12/06 03:46:37;;;;;;;33.70;23.47;;;;;;;;;;5073755;28;20058;-57
2023/12/06 03:49:03;;;;;;;31.67;23.37;;;;;;;;;;5073669;28;20524;-57
2023/12/06 03:51:29;;;;;;;30.30;22.70;;;;;;;;;;5073719;28;20067;-57
2023/12/06 03:53:55;;;;;;;27.33;22.10;;;;;;;;;;5073583;28;20029;-57
2023/12/06 03:56:22;;;;;;;30.03;22.07;;;;;;;;;;5073364;28;20020;-53
2023/12/06 03:58:48;;;;;;;30.80;22.90;;;;;;;;;;5073514;28;20028;-59
2023/12/06 04:01:14;;;;;;;32.33;22.23;;;;;;;;;;5073595;28;20032;-58
2023/12/06 04:03:43;;;;;;;27.73;21.30;;;;;;;;;;5072041;28;20500;-57
2023/12/06 04:06:09;;;;;;;29.13;21.53;;;;;;;;;;5072022;28;20067;-56
2023/12/06 04:08:35;;;;;;;27.57;20.27;;;;;;;;;;5071919;28;20032;-56
2023/12/06 04:11:01;;;;;;;27.50;21.37;;;;;;;;;;5073373;28;20033;-57
2023/12/06 04:13:27;;;;;;;28.33;21.97;;;;;;;;;;5071755;28;20035;-57
2023/12/06 04:15:54;;;;;;;28.27;21.40;;;;;;;;;;5073349;28;20028;-58
2023/12/06 04:18:20;;;;;;;27.80;20.73;;;;;;;;;;5071619;28;20028;-56
2023/12/06 04:20:46;;;;;;;28.30;21.30;;;;;;;;;;5073185;28;20510;-56
2023/12/06 04:23:12;;;;;;;30.23;22.37;;;;;;;;;;5073115;28;20020;-58
2023/12/06 04:25:38;;;;;;;28.10;21.23;;;;;;;;;;5073089;28;20037;-57
2023/12/06 04:28:05;;;;;;;29.63;21.80;;;;;;;;;;5070694;28;20477;-57
2023/12/06 04:30:31;;;;;;;26.10;20.80;;;;;;;;;;5069622;28;20094;-56
2023/12/06 04:32:57;;;;;;;30.47;21.53;;;;;;;;;;5070374;28;20469;-56
2023/12/06 04:35:23;;;;;;;28.27;21.13;;;;;;;;;;5072897;28;20032;-58
2023/12/06 04:37:49;;;;;;;28.60;20.57;;;;;;;;;;5071219;28;20107;-58
2023/12/06 04:40:15;;;;;;;28.63;21.00;;;;;;;;;;5072596;28;20028;-58
2023/12/06 04:42:41;;;;;;;28.37;21.83;;;;;;;;;;5072415;28;20039;-56
2023/12/06 04:45:07;;;;;;;28.53;21.00;;;;;;;;;;5071707;28;20036;-58
2023/12/06 04:47:33;;;;;;;31.43;21.67;;;;;;;;;;5072363;28;20032;-57
2023/12/06 04:49:59;;;;;;;28.40;21.03;;;;;;;;;;5072404;28;20035;-58
2023/12/06 04:52:25;;;;;;;27.00;21.17;;;;;;;;;;5072714;28;20417;-57
2023/12/06 04:54:51;;;;;;;31.83;21.60;;;;;;;;;;5072448;28;20021;-56
2023/12/06 04:57:18;;;;;;;29.50;21.20;;;;;;;;;;5072325;28;20495;-57
2023/12/06 04:59:44;;;;;;;29.33;21.60;;;;;;;;;;5072314;28;20450;-56
2023/12/06 05:02:10;;;;;;;29.80;21.93;;;;;;;;;;5072195;28;20032;-57
2023/12/06 05:04:36;;;;;;;26.83;20.53;;;;;;;;;;5070770;28;20028;-57
2023/12/06 05:07:02;;;;;;;26.73;20.90;;;;;;;;;;5072105;28;20453;-57
2023/12/06 05:09:28;;;;;;;26.40;21.33;;;;;;;;;;5072119;28;20031;-58
2023/12/06 05:11:54;;;;;;;25.33;19.87;;;;;;;;;;5072253;28;20032;-53
2023/12/06 05:14:20;;;;;;;26.87;19.40;;;;;;;;;;5072109;28;20028;-56
2023/12/06 05:16:46;;;;;;;29.73;21.20;;;;;;;;;;5072181;28;20036;-57
2023/12/06 05:19:12;;;;;;;29.67;20.60;;;;;;;;;;5072009;28;20378;-57
2023/12/06 05:21:38;;;;;;;25.90;19.40;;;;;;;;;;5072005;28;20036;-58
2023/12/06 05:24:04;;;;;;;25.70;20.97;;;;;;;;;;5072051;28;20035;-57
2023/12/06 05:26:30;;;;;;;28.03;21.70;;;;;;;;;;5068715;28;20036;-56
2023/12/06 05:28:58;;;;;;;24.60;19.60;;;;;;;;;;5067822;28;20045;-57
2023/12/06 05:32:02;;;;;;;28.00;20.30;;;;;;;;;;5067891;28;20032;-57
2023/12/06 05:34:29;;;;;;;29.03;20.77;;;;;;;;;;5064576;28;20103;-58
2023/12/06 05:36:55;;;;;;;27.83;20.23;;;;;;;;;;5065552;28;20593;-58
2023/12/06 05:39:21;;;;;;;26.07;20.37;;;;;;;;;;5069971;28;20454;-56
2023/12/06 05:41:47;;;;;;;26.80;20.10;;;;;;;;;;5070249;28;20104;-57
2023/12/06 05:44:13;;;;;;;26.87;19.63;;;;;;;;;;5072897;28;20166;-57
2023/12/06 05:46:40;;;;;;;28.10;20.90;;;;;;;;;;5075886;28;20020;-58
2023/12/06 05:49:06;;;;;;;30.07;19.97;;;;;;;;;;5075791;28;20477;-58
2023/12/06 05:51:32;;;;;;;25.27;20.03;;;;;;;;;;5075965;28;20020;-58
2023/12/06 05:53:58;;;;;;;24.97;19.43;;;;;;;;;;5075763;28;20095;-58
2023/12/06 05:56:24;;;;;;;24.90;19.10;;;;;;;;;;5073741;28;20126;-58
2023/12/06 05:58:50;;;;;;;26.80;19.23;;;;;;;;;;5075691;28;20100;-56
2023/12/06 06:01:16;;;;;;;25.83;19.30;;;;;;;;;;5075875;28;20520;-58
2023/12/06 06:03:42;;;;;;;26.13;19.30;;;;;;;;;;5075511;28;20024;-58
2023/12/06 06:06:08;;;;;;;24.47;18.23;;;;;;;;;;5075554;28;20085;-58
2023/12/06 06:08:35;;;;;;;29.67;20.00;;;;;;;;;;5075400;28;20382;-57
2023/12/06 06:11:05;;;;;;;30.20;20.80;;;;;;;;;;5075419;28;20466;-57
2023/12/06 06:13:31;;;;;;;24.70;19.83;;;;;;;;;;5075515;28;20029;-57
2023/12/06 06:15:57;;;;;;;27.90;20.50;;;;;;;;;;5075102;28;20021;-59
2023/12/06 06:18:24;;;;;;;28.20;22.07;;;;;;;;;;5067761;28;20163;-60
2023/12/06 06:20:50;;;;;;;29.33;21.33;;;;;;;;;;5064357;28;20359;-52
2023/12/06 06:23:16;;;;;;;29.23;21.73;;;;;;;;;;5075087;28;20021;-50
2023/12/06 06:25:42;;;;;;;31.30;22.57;;;;;;;;;;5074903;28;20500;-50
2023/12/06 06:28:08;;;;;;;34.63;22.53;;;;;;;;;;5074989;28;20033;-49
2023/12/06 06:30:34;;;;;;;30.70;22.33;;;;;;;;;;5074767;28;20541;-51
2023/12/06 06:33:00;;;;;;;33.30;24.00;;;;;;;;;;5075101;28;20027;-60
2023/12/06 06:35:26;;;;;;;36.10;23.47;;;;;;;;;;5073477;28;20056;-59
2023/12/06 06:37:52;;;;;;;33.23;23.00;;;;;;;;;;5074895;28;20056;-57
2023/12/06 06:40:18;;;;;;;34.77;23.43;;;;;;;;;;5073676;28;20533;-57
2023/12/06 06:42:44;;;;;;;34.33;25.60;;;;;;;;;;5074694;28;20061;-57
2023/12/06 06:45:10;;;;;;;37.03;22.90;;;;;;;;;;5074966;28;20470;-56
2023/12/06 06:47:36;;;;;;;32.80;23.90;;;;;;;;;;5073571;28;20173;-58
2023/12/06 06:50:04;;;;;;;32.73;23.10;;;;;;;;;;5073811;28;20067;-57
2023/12/06 06:52:30;;;;;;;39.40;26.67;;;;;;;;;;5074841;28;20494;-58
2023/12/06 06:54:57;;;;;;;34.47;23.73;;;;;;;;;;5073110;28;20059;-58
2023/12/06 06:57:23;;;;;;;33.23;22.93;;;;;;;;;;5074535;28;20017;-60
2023/12/06 06:59:49;;;;;;;30.27;22.63;;;;;;;;;;5074758;28;20020;-62
2023/12/06 07:02:16;;;;;;;31.57;23.03;;;;;;;;;;5074656;28;20138;-62
2023/12/06 07:04:42;;;;;;;35.00;24.83;;;;;;;;;;5074579;28;20036;-62
2023/12/06 07:07:08;;;;;;;35.97;23.97;;;;;;;;;;5061686;28;20048;-62
2023/12/06 07:09:34;;;;;;;34.73;23.63;;;;;;;;;;5063770;28;20478;-62
2023/12/06 07:12:00;;;;;;;33.47;23.20;;;;;;;;;;5069636;28;20087;-62
2023/12/06 07:14:26;;;;;;;37.50;24.33;;;;;;;;;;5074727;28;20016;-62
2023/12/06 07:16:54;;;;;;;33.03;22.87;;;;;;;;;;5064141;28;20086;-62
2023/12/06 07:19:21;;;;;;;29.33;22.20;;;;;;;;;;5066704;28;20112;-64
2023/12/06 07:21:47;;;;;;;31.07;22.67;;;;;;;;;;5056658;28;20025;-60
2023/12/06 07:24:13;;;;;;;29.33;22.33;;;;;;;;;;5059752;28;20020;-60
2023/12/06 07:26:40;;;;;;;31.53;21.53;;;;;;;;;;5069773;28;20029;-60
2023/12/06 07:29:06;;;;;;;30.17;20.70;;;;;;;;;;5071463;28;20454;-59
2023/12/06 07:31:32;;;;;;;30.87;21.43;;;;;;;;;;5072814;28;20020;-61
2023/12/06 07:33:58;;;;;;;31.50;21.17;;;;;;;;;;5071338;28;20029;-60
2023/12/06 07:36:24;;;;;;;28.53;20.70;;;;;;;;;;5072329;28;20039;-61
2023/12/06 07:38:50;;;;;;;27.67;20.13;;;;;;;;;;5066630;28;20017;-61
2023/12/06 07:41:16;;;;;;;31.20;21.50;;;;;;;;;;5071684;28;20388;-61
2023/12/06 07:43:42;;;;;;;29.80;20.93;;;;;;;;;;5073819;28;20390;-53
2023/12/06 07:46:08;;;;;;;29.57;20.70;;;;;;;;;;5073794;28;20033;-62
2023/12/06 07:48:34;;;;;;;27.23;19.80;;;;;;;;;;5065431;28;20453;-60
2023/12/06 07:51:01;;;;;;;26.10;19.43;;;;;;;;;;5072203;28;20478;-57
2023/12/06 07:53:27;;;;;;;31.07;21.40;;;;;;;;;;5073821;28;20028;-56
2023/12/06 07:55:58;;;;;;;30.17;21.63;;;;;;;;;;5073160;28;20044;-56
2023/12/06 07:58:24;;;;;;;33.90;22.60;;;;;;;;;;5059626;28;20628;-56
2023/12/06 08:00:50;;;;;;;29.13;21.93;;;;;;;;;;5062258;28;20036;-56
2023/12/06 08:03:16;;;;;;;31.43;23.03;;;;;;;;;;5070913;28;20017;-57
2023/12/06 08:05:42;;;;;;;35.17;22.83;;;;;;;;;;5072802;28;20025;-56
2023/12/06 08:08:08;;;;;;;32.10;23.20;;;;;;;;;;5073637;28;20063;-57
2023/12/06 08:10:35;;;;;;;34.27;22.80;;;;;;;;;;5070741;28;20023;-56
2023/12/06 08:13:01;;;;;;;29.80;21.87;;;;;;;;;;5073169;28;20020;-56
2023/12/06 08:15:28;;;;;;;29.17;21.00;;;;;;;;;;5072023;28;20044;-56
2023/12/06 08:17:56;;;;;;;27.17;20.40;;;;;;;;;;5072930;28;20392;-55
2023/12/06 08:20:22;;;;;;;30.10;21.03;;;;;;;;;;5073285;28;20028;-56
2023/12/06 08:22:49;;;;;;;29.07;20.87;;;;;;;;;;5071482;28;20499;-56
2023/12/06 08:25:15;;;;;;;26.20;19.80;;;;;;;;;;5076074;28;20106;-53
2023/12/06 08:27:40;;;;;;;30.87;20.50;;;;;;;;;;5071470;28;20371;-53
2023/12/06 08:30:07;;;;;;;28.93;21.00;;;;;;;;;;5072845;28;20114;-57
2023/12/06 08:32:33;;;;;;;33.50;22.20;;;;;;;;;;5071447;28;20020;-56
2023/12/06 08:35:01;;;;;;;32.43;21.93;;;;;;;;;;5073044;28;20026;-55
2023/12/06 08:40:58;;;;;;;32.03;20.90;;;;;;;;;;5055792;28;20024;-55
2023/12/06 08:43:24;;;;;;;29.93;21.10;;;;;;;;;;5070493;28;20126;-56
2023/12/06 08:45:50;;;;;;;32.07;23.27;;;;;;;;;;5072626;28;20024;-57
2023/12/06 08:48:16;;;;;;;30.80;21.40;;;;;;;;;;5071015;28;20037;-57
2023/12/06 08:50:42;;;;;;;33.47;22.50;;;;;;;;;;5074095;28;20028;-55
2023/12/06 08:53:08;;;;;;;35.33;22.60;;;;;;;;;;5071219;28;20032;-54
2023/12/06 08:55:35;;;;;;;32.57;23.20;;;;;;;;;;5072231;28;20473;-55
2023/12/06 08:58:01;;;;;;;28.60;21.20;;;;;;;;;;5072411;28;20029;-57
2023/12/06 09:00:27;;;;;;;31.23;21.77;;;;;;;;;;5069951;28;20104;-57
2023/12/06 09:02:53;;;;;;;29.43;22.30;;;;;;;;;;5062223;28;20116;-56
2023/12/06 09:05:19;;;;;;;27.57;21.03;;;;;;;;;;5068864;28;20023;-58
2023/12/06 09:07:45;;;;;;;28.93;21.47;;;;;;;;;;5065499;28;20036;-56
2023/12/06 09:10:11;;;;;;;30.70;21.43;;;;;;;;;;5071961;28;20032;-56
2023/12/06 09:12:37;;;;;;;35.40;23.10;;;;;;;;;;5072221;28;20484;-57
2023/12/06 09:15:04;;;;;;;31.67;23.17;;;;;;;;;;5070910;28;20154;-56
2023/12/06 09:17:30;;;;;;;32.93;24.33;;;;;;;;;;5055106;28;20032;-55
2023/12/06 09:19:56;;;;;;;34.93;23.87;;;;;;;;;;5071803;28;20426;-54
2023/12/06 09:22:22;;;;;;;32.70;23.87;;;;;;;;;;5069929;28;20024;-57
2023/12/06 09:24:48;;;;;;;40.77;24.80;;;;;;;;;;5059023;28;20029;-56
2023/12/06 09:27:18;;;;;;;34.27;24.70;;;;;;;;;;5061071;28;20498;-53
2023/12/06 09:29:47;;;;;;;33.97;24.10;;;;;;;;;;5071349;28;20063;-55
2023/12/06 09:32:13;;;;;;;34.07;25.23;;;;;;;;;;5071156;28;20063;-50
2023/12/06 09:34:39;;;;;;;35.50;24.57;;;23.90;99.90;;;;;;5069762;28;20454;-48
2023/12/06 09:37:06;;;;;;;36.13;24.37;;;23.10;99.90;;;;;;5072177;28;20035;-48
2023/12/06 09:39:32;;;;;;;41.20;26.40;;;23.10;99.90;;;;;;5072444;28;20016;-49
2023/12/06 09:41:58;;;;;;;35.13;25.33;;;23.20;99.90;;;;;;5072046;28;20446;-48
2023/12/06 09:44:24;;;;;;;34.20;23.90;;;23.20;99.90;;;;;;5071874;28;20048;-49
2023/12/06 09:46:53;;;;;;;43.07;24.87;;;23.10;99.90;;;;;;5071886;28;20027;-48
2023/12/06 09:49:18;;;;;;;34.33;26.13;;;23.10;99.90;;;;;;5064438;28;20024;-48
2023/12/06 09:51:44;;;;;;;37.83;25.53;;;23.10;99.90;;;;;;5061474;28;20424;-48
2023/12/06 09:54:10;;;;;;;34.57;24.40;;;23.20;99.90;;;;;;5054502;28;20032;-49
2023/12/06 09:56:36;;;;;;;47.67;26.63;;;23.20;99.90;;;;;;5070468;28;20362;-48
2023/12/06 09:59:02;;;;;;;39.87;27.73;;;23.10;99.90;;;;;;5059175;28;20100;-50
2023/12/06 10:01:27;;;;;;;37.27;25.70;;;23.20;99.90;;;;;;5070679;28;20055;-50
2023/12/06 10:03:53;;;;;;;39.63;28.00;;;23.20;99.90;;;;;;5071949;28;20060;-49
2023/12/06 10:06:19;;;;;;;41.80;27.07;;;23.20;99.90;;;;;;5069171;28;20047;-48
2023/12/06 10:08:51;;;;;;;38.93;26.13;;;23.20;99.90;;;;;;5060494;28;20112;-49
2023/12/06 10:11:22;;;;;;;42.40;27.63;;;23.20;99.90;;;;;;5072130;28;20024;-49
2023/12/06 10:13:47;;;;;;;48.83;28.70;;;23.20;99.90;;;;;;5063573;28;20024;-49
2023/12/06 10:16:20;;;;;;;49.00;30.73;;;23.20;99.90;;;;;;5066018;28;20047;-47
2023/12/06 10:18:48;;;;;;;45.70;29.23;;;23.20;99.90;;;;;;5061168;28;20359;-52
2023/12/06 10:21:14;;;;;;;44.47;29.80;;;23.30;99.90;;;;;;5067111;28;20104;-48
2023/12/06 10:23:41;;;;;;;42.57;28.87;;;23.30;99.90;;;;;;5065407;28;20024;-48
2023/12/06 10:26:16;;;;;;;46.50;31.50;;;23.40;99.90;;;;;;5066663;28;20029;-47
2023/12/06 10:28:45;;;;;;;42.37;28.77;;;23.40;99.90;;;;;;5070469;28;20025;-49
2023/12/06 10:31:11;;;;;;;41.40;29.93;;;23.40;99.90;;;;;;5069553;28;20022;-49
2023/12/06 10:33:39;;;;;;;43.20;29.93;;;23.40;99.90;;;;;;5073953;28;20071;-48
2023/12/06 10:36:08;;;;;;;43.03;30.60;;;23.50;99.90;;;;;;5075164;28;20055;-47
2023/12/06 10:38:36;;;;;;;45.87;31.37;;;23.40;99.90;;;;;;5075465;28;20016;-50
2023/12/06 10:41:04;;;;;;;44.53;30.27;;;23.40;99.90;;;;;;5075201;28;20032;-48
2023/12/06 10:43:32;;;;;;;44.00;31.97;;;23.40;99.90;;;;;;5074863;28;20098;-48
2023/12/06 10:45:59;;;;;;;40.87;31.77;;;23.50;99.90;;;;;;5073630;28;20032;-49
2023/12/06 10:48:25;;;;;;;45.03;31.10;;;23.50;99.90;;;;;;5073971;28;20059;-48
2023/12/06 10:50:52;;;;;;;43.73;31.97;;;23.50;99.90;;;;;;5075035;28;20028;-47
2023/12/06 10:53:18;;;;;;;48.03;31.67;;;23.50;99.90;;;;;;5075054;28;20028;-48
2023/12/06 10:55:46;;;;;;;45.43;33.43;;;23.50;99.90;;;;;;5074935;28;20440;-47
2023/12/06 10:58:12;;;;;;;41.50;31.30;;;;;;;;;;5074211;28;20025;-47
2023/12/06 11:00:38;;;;;;;44.00;30.13;;;;;;;;;;5073273;28;20017;-51
2023/12/06 11:03:04;;;;;;;46.13;30.03;;;;;;;;;;5074678;28;20109;-51
2023/12/06 11:05:37;;;;;;;47.97;31.37;;;;;;;;;;5073099;28;20025;-49
2023/12/06 11:08:12;;;;;;;46.80;31.57;;;;;;;;;;5074591;28;20508;-51
2023/12/06 11:10:38;;;;;;;43.83;31.33;;;;;;;;;;5074704;28;20028;-50
2023/12/06 11:13:13;;;;;;;49.03;32.80;;;;;;;;;;5074742;28;20082;-51
2023/12/06 11:15:50;;;;;;;52.60;31.20;;;;;;;;;;5073024;28;20029;-50
2023/12/06 11:18:20;;;;;;;39.43;30.23;;;;;;;;;;5074864;28;20032;-62
2023/12/06 11:20:47;;;;;;;43.10;31.23;;;;;;;;;;5073910;28;20020;-61
2023/12/06 11:23:14;;;;;;;46.43;32.93;;;;;;;;;;5072573;28;20058;-66
2023/12/06 11:25:48;;;;;;;42.43;31.43;;;;;;;;;;5074318;28;20032;-65
2023/12/06 11:28:16;;;;;;;48.30;35.25;;;;;;;;;;5068461;28;20033;-65
2023/12/06 11:30:52;;;;;;;42.20;31.73;;;;;;;;;;5066319;28;20136;-66
2023/12/06 11:33:18;;;;;;;41.60;30.43;;;;;;;;;;5072470;28;20012;-65
2023/12/06 11:35:52;;;;;;;42.10;29.53;;;;;;;;;;5074282;28;20390;-66
2023/12/06 11:38:18;;;;;;;41.27;29.33;;;;;;;;;;5072571;28;20127;-65
2023/12/06 11:40:50;;;;;;;43.20;30.80;;;;;;;;;;5073093;28;20078;-65
2023/12/06 11:43:17;;;;;;;41.37;27.13;;;;;;;;;;5059603;28;20544;-64
2023/12/06 11:45:43;;;;;;;41.50;30.37;;;;;;;;;;5072098;28;20031;-64
2023/12/06 11:48:12;;;;;;;40.57;30.10;;;;;;;;;;5073417;28;20041;-64
2023/12/06 11:50:45;;;;;;;37.87;28.70;;;;;;;;;;5072703;28;20357;-64
2023/12/06 11:53:12;;;;;;;37.97;29.30;;;;;;;;;;5073516;28;20047;-64
2023/12/06 11:55:38;;;;;;;44.13;30.77;;;;;;;;;;5059641;28;20446;-64
2023/12/06 11:58:09;;;;;;;34.53;26.97;;;;;;;;;;5069815;28;20029;-64
2023/12/06 12:00:39;;;;;;;38.10;27.67;;;;;;;;;;5073640;28;20013;-63
2023/12/06 12:03:04;;;;;;;40.27;27.50;;;;;;;;;;5073747;28;20058;-64
2023/12/06 12:05:34;;;;;;;34.50;26.63;;;;;;;;;;5073572;28;20513;-64
2023/12/06 12:08:03;;;;;;;40.80;26.73;;;;;;;;;;5073309;28;20104;-64
2023/12/06 12:10:30;;;;;;;35.13;24.20;;;;;;;;;;5073289;28;20025;-64
2023/12/06 12:12:57;;;;;;;33.73;24.37;;;;;;;;;;5073491;28;20429;-65
2023/12/06 12:15:26;;;;;;;35.23;26.63;;;;;;;;;;5070994;28;20097;-64
2023/12/06 12:17:52;;;;;;;33.90;24.53;;;;;;;;;;5060452;28;20036;-64
2023/12/06 12:20:19;;;;;;;32.80;25.37;;;;;;;;;;5059774;28;20063;-65
2023/12/06 12:22:49;;;;;;;31.13;23.97;;;;;;;;;;5072811;28;20075;-65
2023/12/06 12:25:16;;;;;;;32.97;24.27;;;;;;;;;;5072872;28;20097;-65
2023/12/06 12:36:52;;;;;;;31.13;24.30;;;;;;;;;;5064257;28;20035;-65
2023/12/06 12:39:18;;;;;;;31.63;23.23;;;;;;;;;;5072783;28;20024;-64
2023/12/06 12:41:44;;;;;;;34.43;24.37;;;;;;;;;;5071166;28;20024;-64
2023/12/06 12:44:10;;;;;;;33.60;24.37;;;;;;;;;;5072673;28;20506;-66
2023/12/06 12:46:37;;;;;;;33.43;24.33;;;;;;;;;;5072833;28;20048;-65
2023/12/06 12:49:05;;;;;;;33.03;24.30;;;;;;;;;;5072466;28;20035;-64
2023/12/06 12:51:33;;;;;;;32.77;23.60;;;;;;;;;;5072170;28;20017;-65
2023/12/06 12:53:59;;;;;;;29.77;23.13;;;;;;;;;;5071134;28;20075;-64
2023/12/06 12:56:25;;;;;;;34.93;24.33;;;;;;;;;;5072362;28;20032;-64
2023/12/06 12:58:53;;;;;;;30.90;24.10;;;;;;;;;;5072622;28;20424;-64
2023/12/06 13:01:19;;;;;;;31.93;22.60;;;;;;;;;;5072459;28;20485;-64
2023/12/06 13:03:46;;;;;;;36.20;24.60;;;;;;;;;;5072277;28;20028;-65
2023/12/06 13:06:12;;;;;;;29.67;23.23;;;;;;;;;;5058200;28;20029;-64
2023/12/06 13:08:38;;;;;;;30.97;22.97;;;;;;;;;;5069088;28;20509;-66
2023/12/06 13:11:04;;;;;;;33.33;23.97;;;;;;;;;;5072608;28;20043;-65
2023/12/06 13:13:30;;;;;;;35.97;23.30;;;;;;;;;;5072120;28;20036;-66
2023/12/06 13:15:56;;;;;;;29.67;23.30;;;;;;;;;;5070558;28;20029;-65
2023/12/06 13:18:23;;;;;;;28.57;22.90;;;;;;;;;;5072163;28;20039;-64
2023/12/06 13:20:49;;;;;;;30.40;21.07;;;;;;;;;;5073572;28;20023;-64
2023/12/06 13:23:15;;;;;;;28.63;20.37;;;;;;;;;;5071989;28;20029;-65
2023/12/06 13:25:41;;;;;;;26.90;20.20;;;;;;;;;;5071804;28;20382;-65
2023/12/06 13:28:09;;;;;;;29.70;19.90;;;;;;;;;;5070553;28;20036;-65
2023/12/06 13:30:34;;;;;;;25.07;20.93;;;;;;;;;;5072059;28;20106;-65
2023/12/06 13:33:00;;;;;;;29.43;21.10;;;;;;;;;;5071938;28;20158;-65
2023/12/06 13:35:26;;;;;;;27.20;20.53;;;;;;;;;;5071963;28;20028;-65
2023/12/06 13:44:01;;;;;;;26.00;20.30;;;;;;;;;;5070020;28;20523;-64
2023/12/06 13:46:27;;;;;;;30.75;20.75;;;;;;;;;;5071839;28;20462;-65
2023/12/06 13:48:53;;;;;;;26.83;20.73;;;;;;;;;;5071837;28;20033;-65
2023/12/06 13:51:19;;;;;;;28.67;22.13;;;;;;;;;;5071968;28;20013;-65
2023/12/06 13:53:45;;;;;;;32.03;21.63;;;;;;;;;;5071835;28;20074;-65
2023/12/06 13:56:11;;;;;;;28.83;20.53;;;;;;;;;;5071624;28;20024;-65
2023/12/06 13:58:37;;;;;;;27.70;20.43;;;;;;;;;;5072045;28;20047;-65
2023/12/06 14:01:03;;;;;;;30.07;21.20;;;;;;;;;;5070312;28;20466;-65
2023/12/06 14:03:29;;;;;;;26.70;20.40;;;;;;;;;;5072149;28;20415;-65
2023/12/06 14:05:55;;;;;;;27.30;20.60;;;;;;;;;;5075644;28;20116;-64
2023/12/06 14:08:24;;;;;;;24.63;20.20;;;;;;;;;;5075432;28;20036;-66
2023/12/06 14:10:50;;;;;;;27.27;21.40;;;;;;;;;;5075377;28;20409;-65
2023/12/06 14:13:16;;;;;;;30.00;21.70;;;;;;;;;;5075319;28;20470;-65
2023/12/06 14:15:42;;;;;;;25.07;20.73;;;;;;;;;;5075791;28;20021;-65
2023/12/06 14:18:08;;;;;;;26.97;21.53;;;;;;;;;;5075273;28;20033;-65